Time;durP1;ratioP1;P1;durP2;ratioP2;P2;SDS_P1;SDS_P2;PMS_P1;PMS_P2;Temp;Humidity;BMP_temperature;BMP_pressure;BME280_temperature;BME280_humidity;BME280_pressure;Samples;Min_cycle;Max_cycle;Signal;HPM_P1;HPM_P2
2023/05/05 00:01:13;;;;;;;7.55;4.57;;;;;;;9.59;100.00;100811.88;6258606;28;20105;-88
2023/05/05 00:04:16;;;;;;;7.30;4.78;;;;;;;9.58;100.00;100812.81;6255519;28;20383;-88
2023/05/05 00:07:18;;;;;;;8.45;5.75;;;;;;;9.59;100.00;100812.72;6258588;28;20047;-88
2023/05/05 00:10:20;;;;;;;8.27;4.78;;;;;;;9.57;100.00;100799.06;6261698;28;20049;-88
2023/05/05 00:13:22;;;;;;;7.60;4.32;;;;;;;9.55;100.00;100803.50;6254777;28;20145;-88
2023/05/05 00:16:24;;;;;;;7.45;4.70;;;;;;;9.52;100.00;100808.09;6251161;28;20096;-88
2023/05/05 00:19:26;;;;;;;6.47;4.25;;;;;;;9.50;100.00;100797.84;6251908;28;20127;-88
2023/05/05 00:22:28;;;;;;;5.95;4.35;;;;;;;9.47;100.00;100803.22;6259578;28;20041;-88
2023/05/05 00:25:30;;;;;;;6.45;4.20;;;;;;;9.45;100.00;100797.34;6254520;28;20041;-88
2023/05/05 00:28:32;;;;;;;8.30;5.07;;;;;;;9.44;100.00;100801.69;6258635;28;20041;-88
2023/05/05 00:31:33;;;;;;;8.52;4.40;;;;;;;9.40;100.00;100795.06;6252328;28;20077;-88
2023/05/05 00:34:35;;;;;;;6.55;4.25;;;;;;;9.37;100.00;100792.72;6258838;28;20049;-88
2023/05/05 00:37:37;;;;;;;5.90;5.05;;;;;;;9.30;100.00;100788.09;6259254;28;20418;-87
2023/05/05 00:40:39;;;;;;;6.25;4.30;;;;;;;9.29;100.00;100774.31;6260578;28;20037;-87
2023/05/05 00:43:40;;;;;;;7.82;4.85;;;;;;;9.25;100.00;100778.88;6260669;28;20056;-88
2023/05/05 00:46:43;;;;;;;5.80;4.63;;;;;;;9.22;100.00;100773.94;6243882;28;20049;-89
2023/05/05 00:49:45;;;;;;;6.15;4.50;;;;;;;9.19;100.00;100763.81;6260826;28;20111;-88
2023/05/05 00:52:47;;;;;;;5.63;4.55;;;;;;;9.17;100.00;100776.00;6261064;28;20083;-88
2023/05/05 00:55:50;;;;;;;7.82;4.55;;;;;;;9.11;100.00;100780.75;6259903;28;20044;-88
2023/05/05 00:58:52;;;;;;;8.20;4.82;;;;;;;9.02;100.00;100769.31;6257355;28;20124;-88
2023/05/05 01:01:54;;;;;;;6.57;4.72;;;;;;;8.96;100.00;100765.38;6261451;28;20060;-88
2023/05/05 01:04:57;;;;;;;6.53;4.30;;;;;;;8.88;100.00;100762.50;6238898;28;20519;-88
2023/05/05 01:08:08;;;;;;;9.82;4.88;;;;;;;8.84;100.00;100758.47;6264399;28;20442;-88
2023/05/05 01:11:19;;;;;;;7.78;4.57;;;;;;;8.84;100.00;100755.91;6263430;28;20076;-88
2023/05/05 01:14:43;;;;;;;7.40;4.68;;;;;;;8.82;100.00;100761.19;6262913;28;20167;-88
2023/05/05 01:17:54;;;;;;;6.07;4.65;;;;;;;8.84;100.00;100759.31;6239407;28;20393;-88
2023/05/05 01:21:06;;;;;;;9.85;4.90;;;;;;;8.83;100.00;100756.84;6260982;28;20056;-88
2023/05/05 01:24:37;;;;;;;7.53;4.53;;;;;;;8.81;100.00;100758.69;6257652;28;20098;-88
2023/05/05 01:28:12;;;;;;;6.93;4.82;;;;;;;8.83;100.00;100755.06;6248187;28;20048;-88
2023/05/05 01:31:41;;;;;;;10.00;4.80;;;;;;;8.81;100.00;100754.34;6264423;28;20041;-88
2023/05/05 01:34:47;;;;;;;8.15;4.38;;;;;;;8.81;100.00;100750.94;6264635;28;20218;-88
2023/05/05 01:37:58;;;;;;;7.15;4.35;;;;;;;8.80;100.00;100747.53;6264076;28;20076;-88
2023/05/05 01:41:07;;;;;;;;;;;;;;;8.80;100.00;100742.38;6260993;28;20040;-88
2023/05/05 01:44:14;;;;;;;6.63;4.30;;;;;;;8.80;100.00;100744.16;6252421;28;19925;-88
2023/05/05 01:47:18;;;;;;;7.97;4.53;;;;;;;8.83;100.00;100747.34;6262314;28;20048;-88
2023/05/05 01:50:21;;;;;;;12.32;5.28;;;;;;;8.82;100.00;100745.69;6262063;28;20099;-88
2023/05/05 01:53:24;;;;;;;6.68;4.55;;;;;;;8.79;100.00;100743.31;6262471;28;20040;-87
2023/05/05 01:56:27;;;;;;;7.03;4.68;;;;;;;8.77;100.00;100741.75;6254350;28;20037;-88
2023/05/05 01:59:31;;;;;;;6.68;4.43;;;;;;;8.70;100.00;100737.97;6240002;28;20041;-88
2023/05/05 02:02:35;;;;;;;6.05;4.25;;;;;;;8.60;100.00;100741.16;6262365;28;20037;-88
2023/05/05 02:05:38;;;;;;;8.27;4.85;;;;;;;8.54;100.00;100738.16;6257053;28;20102;-87
2023/05/05 02:08:42;;;;;;;4.90;4.22;;;;;;;8.50;100.00;100734.13;6259692;28;20040;-88
2023/05/05 02:11:44;;;;;;;6.60;4.72;;;;;;;8.45;100.00;100731.00;6248486;28;20598;-88
2023/05/05 02:14:46;;;;;;;6.88;4.82;;;;;;;8.44;100.00;100725.03;6262863;28;20419;-88
2023/05/05 02:17:51;;;;;;;9.75;4.90;;;;;;;8.38;100.00;100721.09;6264394;28;20116;-88
2023/05/05 02:20:53;;;;;;;6.32;4.47;;;;;;;8.36;100.00;100727.28;6246645;28;20059;-88
2023/05/05 02:23:55;;;;;;;8.65;4.72;;;;;;;8.37;100.00;100729.75;6242327;28;20053;-88
2023/05/05 02:26:58;;;;;;;6.80;5.05;;;;;;;8.37;100.00;100737.50;6247306;28;20033;-88
2023/05/05 02:30:07;;;;;;;6.88;4.55;;;;;;;8.41;100.00;100725.25;6255304;28;20514;-88
2023/05/05 02:33:15;;;;;;;8.55;4.70;;;;;;;8.39;100.00;100716.75;6262123;28;20467;-88
2023/05/05 02:36:20;;;;;;;6.45;5.10;;;;;;;8.40;100.00;100721.84;6262633;28;20068;-88
2023/05/05 02:39:45;;;;;;;7.90;5.20;;;;;;;8.36;100.00;100722.94;6249621;28;20514;-87
2023/05/05 02:42:55;;;;;;;6.45;4.85;;;;;;;8.26;100.00;100728.81;6227779;28;20404;-88
2023/05/05 02:46:02;;;;;;;6.70;5.30;;;;;;;8.20;100.00;100722.31;6226511;28;20041;-87
2023/05/05 02:49:06;;;;;;;6.93;4.85;;;;;;;8.11;100.00;100721.16;6268003;28;20053;-88
2023/05/05 02:52:08;;;;;;;8.35;5.20;;;;;;;8.06;100.00;100714.66;6248565;28;20044;-88
2023/05/05 02:55:14;;;;;;;8.52;4.95;;;;;;;7.94;100.00;100719.66;6247925;28;20171;-88
2023/05/05 02:58:33;;;;;;;9.52;5.32;;;;;;;7.90;100.00;100720.81;6255754;28;20132;-88
2023/05/05 03:02:05;;;;;;;6.47;5.05;;;;;;;7.83;100.00;100723.88;6251146;28;20046;-88
2023/05/05 03:05:14;;;;;;;6.72;4.85;;;;;;;7.82;100.00;100717.06;6261927;28;20053;-88
2023/05/05 03:09:00;;;;;;;6.43;4.70;;;;;;;7.82;100.00;100717.88;6260119;28;20175;-88
2023/05/05 03:12:15;;;;;;;6.65;4.97;;;;;;;7.78;100.00;100716.44;6205208;28;20061;-88
2023/05/05 03:15:35;;;;;;;7.20;5.03;;;;;;;7.77;100.00;100709.63;6182204;28;20563;-88
2023/05/05 03:18:38;;;;;;;8.00;5.28;;;;;;;7.77;100.00;100715.59;6193260;28;20128;-88
2023/05/05 03:21:41;;;;;;;9.23;5.70;;;;;;;7.78;100.00;100716.44;6192610;28;20042;-88
2023/05/05 03:24:48;;;;;;;7.30;5.53;;;;;;;7.79;100.00;100717.25;6193188;28;20041;-88
2023/05/05 03:27:51;;;;;;;6.95;4.90;;;;;;;7.75;100.00;100719.19;6193328;28;20511;-88
2023/05/05 03:30:55;;;;;;;9.05;5.68;;;;;;;7.70;100.00;100714.38;6194148;28;20061;-88
2023/05/05 03:33:58;;;;;;;9.93;5.72;;;;;;;7.61;100.00;100707.22;6177245;28;20591;-88
2023/05/05 03:37:05;;;;;;;6.88;5.25;;;;;;;7.57;100.00;100717.81;6186642;28;20090;-87
2023/05/05 03:40:08;;;;;;;8.77;5.43;;;;;;;7.51;100.00;100701.00;6192167;28;20411;-88
2023/05/05 03:43:10;;;;;;;8.23;5.13;;;;;;;7.50;100.00;100700.19;6202533;28;20060;-88
2023/05/05 03:46:13;;;;;;;10.07;5.68;;;;;;;7.49;100.00;100701.09;6209582;28;20050;-88
2023/05/05 03:49:18;;;;;;;7.50;5.40;;;;;;;7.48;100.00;100696.03;6243575;28;20049;-88
2023/05/05 03:52:22;;;;;;;7.40;5.22;;;;;;;7.50;100.00;100702.75;6255907;28;20038;-88
2023/05/05 03:55:23;;;;;;;11.40;5.13;;;;;;;7.52;100.00;100700.06;6256269;28;20140;-88
2023/05/05 03:58:25;;;;;;;5.65;5.00;;;;;;;7.52;100.00;100698.31;6253584;28;20561;-87
2023/05/05 04:01:28;;;;;;;7.78;6.07;;;;;;;7.54;100.00;100703.38;6256347;28;20045;-88
2023/05/05 04:04:31;;;;;;;6.70;5.10;;;;;;;7.54;100.00;100704.19;6259336;28;20045;-88
2023/05/05 04:07:33;;;;;;;11.18;5.65;;;;;;;7.61;100.00;100709.78;6260225;28;20049;-88
2023/05/05 04:10:36;;;;;;;7.70;5.25;;;;;;;7.68;100.00;100703.31;6261547;28;20045;-88
2023/05/05 04:13:39;;;;;;;8.95;5.15;;;;;;;7.79;100.00;100709.53;6231425;28;20132;-87
2023/05/05 04:16:41;;;;;;;7.18;5.00;;;;;;;7.86;100.00;100713.38;6255755;28;20037;-88
2023/05/05 04:19:43;;;;;;;7.53;4.90;;;;;;;7.90;100.00;100710.50;6251458;28;20613;-88
2023/05/05 04:22:45;;;;;;;9.40;5.40;;;;;;;7.93;100.00;100714.63;6243718;28;20521;-88
2023/05/05 04:25:49;;;;;;;6.68;5.30;;;;;;;7.97;100.00;100698.88;6248247;28;20053;-88
2023/05/05 04:28:51;;;;;;;9.40;5.05;;;;;;;8.02;100.00;100683.06;6259199;28;20036;-88
2023/05/05 04:31:53;;;;;;;8.52;5.40;;;;;;;8.11;100.00;100703.09;6242753;28;20033;-88
2023/05/05 04:34:55;;;;;;;9.63;5.40;;;;;;;8.21;100.00;100713.66;6251117;28;20048;-88
2023/05/05 04:37:57;;;;;;;8.45;5.07;;;;;;;8.36;100.00;100715.19;6240018;28;20037;-88
2023/05/05 04:40:59;;;;;;;9.40;5.10;;;;;;;8.53;100.00;100711.53;6271519;28;20041;-88
2023/05/05 04:44:02;;;;;;;7.25;5.13;;;;;;;8.71;100.00;100711.22;6255758;28;20041;-88
2023/05/05 04:47:04;;;;;;;10.27;5.45;;;;;;;8.84;100.00;100705.13;6259511;28;20061;-88
2023/05/05 04:50:08;;;;;;;6.95;4.95;;;;;;;9.03;100.00;100696.91;6267146;28;20048;-88
2023/05/05 04:53:10;;;;;;;8.65;5.40;;;;;;;9.21;100.00;100705.13;6256969;28;20041;-88
2023/05/05 04:56:12;;;;;;;7.75;5.82;;;;;;;9.51;100.00;100701.28;6255984;28;20107;-88
2023/05/05 04:59:15;;;;;;;8.85;5.47;;;;;;;9.82;100.00;100696.50;6260757;28;20041;-87
2023/05/05 05:02:17;;;;;;;8.73;4.88;;;;;;;10.08;100.00;100697.97;6267525;28;20649;-88
2023/05/05 05:05:23;;;;;;;13.65;5.88;;;;;;;10.24;100.00;100687.31;6258661;28;20081;-87
2023/05/05 05:08:25;;;;;;;7.68;5.43;;;;;;;10.31;100.00;100695.47;6215766;28;20499;-87
2023/05/05 05:11:27;;;;;;;8.30;5.30;;;;;;;10.45;100.00;100703.03;6256480;28;20520;-88
2023/05/05 05:14:35;;;;;;;8.88;5.40;;;;;;;10.57;100.00;100703.88;6263625;28;20052;-87
2023/05/05 05:17:38;;;;;;;11.80;5.70;;;;;;;10.69;100.00;100700.34;6257784;28;20052;-88
2023/05/05 05:20:40;;;;;;;13.63;5.60;;;;;;;10.77;100.00;100689.38;6235289;28;20037;-88
2023/05/05 05:23:42;;;;;;;11.65;5.35;;;;;;;10.82;100.00;100686.44;6258013;28;20044;-88
2023/05/05 05:26:44;;;;;;;8.57;5.60;;;;;;;10.81;100.00;100687.38;6257769;28;20049;-88
2023/05/05 05:29:46;;;;;;;8.57;5.28;;;;;;;10.80;100.00;100690.91;6255933;28;20563;-87
2023/05/05 05:32:49;;;;;;;7.43;5.38;;;;;;;10.74;100.00;100713.75;6268221;28;20048;-88
2023/05/05 05:35:51;;;;;;;9.30;5.03;;;;;;;10.64;100.00;100724.94;6237400;28;20048;-88
2023/05/05 05:38:56;;;;;;;10.20;5.55;;;;;;;10.52;100.00;100717.16;6248468;28;20045;-88
2023/05/05 05:41:58;;;;;;;12.10;5.75;;;;;;;10.41;100.00;100714.56;6246942;28;20049;-88
2023/05/05 05:45:01;;;;;;;9.27;5.15;;;;;;;10.35;100.00;100715.00;6250007;28;20052;-87
2023/05/05 05:48:03;;;;;;;7.82;5.03;;;;;;;10.49;100.00;100713.97;6246489;28;20419;-88
2023/05/05 05:51:06;;;;;;;7.72;5.55;;;;;;;10.89;100.00;100713.53;6251173;28;20049;-88
2023/05/05 05:54:08;;;;;;;7.88;5.43;;;;;;;11.24;100.00;100704.75;6253564;28;20064;-88
2023/05/05 05:57:10;;;;;;;9.55;5.30;;;;;;;11.59;100.00;100709.72;6246230;28;20052;-88
2023/05/05 06:00:13;;;;;;;8.18;5.20;;;;;;;11.82;100.00;100711.28;6249209;28;20351;-88
2023/05/05 06:03:19;;;;;;;10.13;5.82;;;;;;;11.96;100.00;100710.19;6256556;28;20050;-88
2023/05/05 06:06:25;;;;;;;9.70;5.68;;;;;;;12.02;100.00;100716.63;6250906;28;20088;-88
2023/05/05 06:09:26;;;;;;;8.05;5.38;;;;;;;12.11;100.00;100728.88;6255677;28;20041;-88
2023/05/05 06:12:29;;;;;;;8.38;5.72;;;;;;;12.23;100.00;100727.03;6262233;28;20122;-88
2023/05/05 06:15:31;;;;;;;7.65;5.55;;;;;;;12.38;100.00;100717.16;6262567;28;20135;-88
2023/05/05 06:18:36;;;;;;;10.32;5.78;;;;;;;12.54;100.00;100717.50;6260398;28;20555;-88
2023/05/05 06:21:37;;;;;;;13.32;5.82;;;;;;;12.69;100.00;100715.38;6258637;28;20497;-88
2023/05/05 06:24:41;;;;;;;6.85;5.38;;;;;;;12.81;100.00;100721.31;6260819;28;20103;-88
2023/05/05 06:27:43;;;;;;;9.65;5.72;;;;;;;12.85;100.00;100710.53;6263136;28;20048;-88
2023/05/05 06:30:46;;;;;;;12.07;5.55;;;;;;;12.88;100.00;100706.84;6262072;28;20092;-88
2023/05/05 06:33:48;;;;;;;8.88;5.68;;;;;;;12.89;100.00;100703.28;6258008;28;20430;-88
2023/05/05 06:36:50;;;;;;;9.45;5.63;;;;;;;13.03;100.00;100700.34;6254154;28;20079;-88
2023/05/05 06:39:52;;;;;;;8.80;5.55;;;;;;;13.17;100.00;100696.56;6257524;28;20526;-88
2023/05/05 06:42:54;;;;;;;8.98;5.88;;;;;;;13.35;100.00;100712.34;6257842;28;20502;-88
2023/05/05 06:46:01;;;;;;;8.18;5.43;;;;;;;13.38;100.00;100719.06;6259330;28;20045;-88
2023/05/05 06:49:03;;;;;;;11.48;5.57;;;;;;;13.37;100.00;100731.22;6249146;28;20529;-88
2023/05/05 06:52:07;;;;;;;9.02;5.78;;;;;;;13.31;100.00;100713.56;6260279;28;20131;-88
2023/05/05 06:55:09;;;;;;;9.32;5.78;;;;;;;13.22;100.00;100711.75;6242090;28;20053;-88
2023/05/05 06:58:11;;;;;;;7.93;5.20;;;;;;;13.12;100.00;100715.13;6256909;28;20116;-88
2023/05/05 07:01:13;;;;;;;8.27;5.47;;;;;;;13.05;100.00;100718.41;6263181;28;20151;-88
2023/05/05 07:04:15;;;;;;;9.60;6.35;;;;;;;13.00;100.00;100715.38;6263377;28;20036;-88
2023/05/05 07:07:17;;;;;;;9.77;6.07;;;;;;;12.96;100.00;100716.59;6262178;28;20191;-88
2023/05/05 07:10:20;;;;;;;14.75;6.32;;;;;;;13.03;100.00;100718.53;6262218;28;20048;-88
2023/05/05 07:13:22;;;;;;;9.90;5.78;;;;;;;13.22;100.00;100706.53;6261378;28;20048;-88
2023/05/05 07:16:27;;;;;;;19.60;6.10;;;;;;;13.43;100.00;100714.25;6260017;28;20505;-88
2023/05/05 07:19:29;;;;;;;10.25;6.28;;;;;;;13.65;100.00;100702.78;6259602;28;20675;-88
2023/05/05 07:22:31;;;;;;;9.48;6.18;;;;;;;13.81;100.00;100691.81;6249109;28;20064;-88
2023/05/05 07:25:33;;;;;;;9.77;6.72;;;;;;;14.00;100.00;100692.63;6237136;28;20123;-88
2023/05/05 07:28:35;;;;;;;11.45;6.30;;;;;;;14.36;100.00;100694.59;6252662;28;20041;-88
2023/05/05 07:31:37;;;;;;;9.52;5.93;;;;;;;14.69;100.00;100693.28;6254659;28;20045;-88
2023/05/05 07:34:39;;;;;;;9.77;5.80;;;;;;;14.92;100.00;100700.72;6262502;28;20033;-88
2023/05/05 07:37:41;;;;;;;9.57;5.88;;;;;;;15.11;100.00;100697.19;6239591;28;20090;-88
2023/05/05 07:40:46;;;;;;;10.35;5.60;;;;;;;15.26;100.00;100706.97;6247355;28;20186;-88
2023/05/05 07:43:48;;;;;;;10.23;6.55;;;;;;;15.33;100.00;100709.81;6241426;28;20491;-89
2023/05/05 07:46:50;;;;;;;10.68;5.68;;;;;;;15.43;100.00;100717.59;6250503;28;20041;-88
2023/05/05 07:49:51;;;;;;;7.05;5.93;;;;;;;15.59;100.00;100736.00;6245230;28;20028;-90
2023/05/05 07:52:54;;;;;;;9.82;5.35;;;;;;;15.74;100.00;100741.53;6246750;28;20088;-90
2023/05/05 07:56:14;;;;;;;11.07;6.77;;;;;;;15.94;100.00;100750.03;6253420;28;20037;-90
2023/05/05 07:59:16;;;;;;;7.68;5.43;;;;;;;16.18;100.00;100764.28;6246211;28;20030;-90
2023/05/05 08:02:21;;;;;;;9.05;5.72;;;;;;;16.36;100.00;100768.47;6260913;28;20049;-90
2023/05/05 08:05:23;;;;;;;8.40;5.55;;;;;;;16.46;100.00;100759.72;6259920;28;20149;-90
2023/05/05 08:08:25;;;;;;;9.10;6.07;;;;;;;16.45;100.00;100761.53;6258768;28;20211;-90
2023/05/05 08:11:28;;;;;;;10.35;5.43;;;;;;;16.39;100.00;100769.97;6258021;28;20159;-90
2023/05/05 08:14:30;;;;;;;7.95;5.88;;;;;;;16.31;100.00;100780.34;6259063;28;20420;-90
2023/05/05 08:17:54;;;;;;;9.63;6.00;;;;;;;16.12;100.00;100787.41;6237987;28;20620;-90
2023/05/05 08:20:56;;;;;;;9.05;5.45;;;;;;;16.13;100.00;100793.44;6253454;28;20045;-90
2023/05/05 08:23:58;;;;;;;6.75;5.30;;;;;;;16.31;100.00;100781.16;6258230;28;20103;-90
2023/05/05 08:27:00;;;;;;;8.48;5.63;;;;;;;16.53;100.00;100787.69;6259604;28;20045;-90
2023/05/05 08:30:03;;;;;;;8.77;6.05;;;;;;;16.74;100.00;100779.50;6253476;28;20037;-90
2023/05/05 08:33:05;;;;;;;12.57;6.32;;;;;;;16.93;100.00;100781.09;6249808;28;20042;-90
2023/05/05 08:36:07;;;;;;;9.48;5.68;;;;;;;17.04;100.00;100782.59;6234727;28;20423;-90
2023/05/05 08:39:09;;;;;;;7.22;5.13;;;;;;;17.12;100.00;100787.06;6259919;28;20044;-90
2023/05/05 08:42:11;;;;;;;8.65;5.80;;;;;;;17.26;100.00;100783.81;6259927;28;20353;-90
2023/05/05 08:45:28;;;;;;;6.57;5.20;;;;;;;17.35;100.00;100780.28;6238546;28;20041;-90
2023/05/05 08:48:33;;;;;;;9.35;6.13;;;;;;;17.51;100.00;100776.84;6265454;28;20041;-90
2023/05/05 08:51:43;;;;;;;9.15;5.75;;;;;;;17.69;100.00;100771.53;6262853;28;20120;-90
2023/05/05 08:54:50;;;;;;;11.40;6.35;;;;;;;17.88;100.00;100754.69;6259153;28;20040;-90
2023/05/05 08:57:52;;;;;;;8.57;5.88;;;;;;;18.02;100.00;100761.91;6263288;28;20465;-91
2023/05/05 09:00:55;;;;;;;9.32;5.93;;;;;;;18.05;100.00;100747.66;6257231;28;20067;-90
2023/05/05 09:03:58;;;;;;;10.70;5.90;;;;;;;18.13;100.00;100746.84;6259969;28;20613;-91
2023/05/05 09:07:00;;;;;;;7.90;5.53;;;;;;;18.26;100.00;100742.72;6252630;28;20228;-90
2023/05/05 09:10:03;;;;;;;9.40;5.38;;;;;;;18.32;100.00;100743.06;6249749;28;20048;-90
2023/05/05 09:13:05;;;;;;;7.53;5.57;;;;;;;18.38;100.00;100745.00;6260373;28;20041;-91
2023/05/05 09:16:10;;;;;;;7.90;5.55;;;;;;;18.51;100.00;100756.59;6250056;28;20414;-91
2023/05/05 09:19:12;;;;;;;8.75;5.47;;;;;;;18.64;100.00;100750.84;6269291;28;20040;-90
2023/05/05 09:22:14;;;;;;;11.50;6.78;;;;;;;18.77;100.00;100742.47;6264502;28;20097;-90
2023/05/05 09:25:17;;;;;;;9.15;6.15;;;;;;;18.75;100.00;100744.41;6262015;28;20641;-91
2023/05/05 09:28:19;;;;;;;16.80;7.50;;;;;;;18.86;100.00;100741.47;6273177;28;20044;-91
2023/05/05 09:31:21;;;;;;;11.25;6.10;;;;;;;19.08;100.00;100752.16;6265036;28;20465;-92
2023/05/05 09:34:24;;;;;;;9.15;6.20;;;;;;;19.42;100.00;100764.13;6261612;28;20120;-90
2023/05/05 09:37:32;;;;;;;8.25;5.80;;;;;;;19.67;100.00;100770.06;6242527;28;20144;-90
2023/05/05 09:40:52;;;;;;;9.80;5.75;;;;;;;19.78;100.00;100777.56;6253140;28;20049;-90
2023/05/05 09:43:54;;;;;;;10.27;6.10;;;;;;;19.92;100.00;100775.97;6251787;28;20041;-90
2023/05/05 09:46:57;;;;;;;8.75;6.15;;;;;;;19.89;100.00;100777.16;6247284;28;20041;-90
2023/05/05 09:49:59;;;;;;;10.57;6.38;;;;;;;19.90;100.00;100770.91;6244702;28;20422;-90
2023/05/05 09:53:02;;;;;;;9.95;6.60;;;;;;;19.92;100.00;100765.47;6255063;28;20369;-90
2023/05/05 09:56:04;;;;;;;9.73;6.63;;;;;;;19.91;100.00;100780.41;6246390;28;20216;-90
2023/05/05 09:59:09;;;;;;;8.98;6.22;;;;;;;19.85;100.00;100781.13;6252900;28;20040;-90
2023/05/05 10:02:15;;;;;;;10.90;6.97;;;;;;;19.90;100.00;100773.53;6252454;28;20042;-90
2023/05/05 10:05:18;;;;;;;7.85;5.90;;;;;;;19.92;100.00;100768.91;6242708;28;20144;-90
2023/05/05 10:08:22;;;;;;;10.20;7.28;;;;;;;19.89;100.00;100769.25;6253478;28;20128;-90
2023/05/05 10:11:25;;;;;;;8.20;6.57;;;;;;;19.85;100.00;100767.16;6250412;28;20104;-90
2023/05/05 10:14:35;;;;;;;8.98;7.05;;;;;;;19.77;100.00;100760.97;6265134;28;20037;-90
2023/05/05 10:17:50;;;;;;;10.82;6.18;;;;;;;19.67;100.00;100751.66;6240310;28;20549;-90
2023/05/05 10:21:10;;;;;;;11.65;7.07;;;;;;;19.75;100.00;100749.00;6242556;28;20049;-89
2023/05/05 10:24:37;;;;;;;10.27;6.45;;;;;;;20.10;100.00;100746.75;6240326;28;20414;-89
2023/05/05 10:27:45;;;;;;;10.77;6.75;;;;;;;20.62;100.00;100753.81;6251289;28;20136;-91
2023/05/05 10:30:50;;;;;;;9.57;6.38;;;;;;;21.02;100.00;100755.16;6262354;28;20482;-91
2023/05/05 10:33:58;;;;;;;10.30;6.40;;;;;;;21.39;100.00;100749.91;6262350;28;20052;-91
2023/05/05 10:37:01;;;;;;;7.95;5.90;;;;;;;21.66;100.00;100741.31;6263081;28;20055;-91
2023/05/05 10:40:04;;;;;;;9.32;6.82;;;;;;;21.71;100.00;100731.00;6265090;28;20037;-90
2023/05/05 10:43:07;;;;;;;8.60;6.90;;;;;;;21.70;100.00;100731.19;6249655;28;20067;-91
2023/05/05 10:46:09;;;;;;;10.35;7.30;;;;;;;21.87;100.00;100737.00;6239211;28;20076;-90
2023/05/05 10:49:41;;;;;;;8.15;6.68;;;;;;;22.06;100.00;100731.09;6239358;28;20146;-89
2023/05/05 10:53:20;;;;;;;8.48;6.70;;;;;;;22.32;100.00;100732.28;6253500;28;20057;-90
2023/05/05 10:56:29;;;;;;;9.23;6.70;;;;;;;;;;6241126;28;20065;-90
2023/05/05 10:59:37;;;;;;;9.05;5.80;;;;;;;22.16;100.00;100749.22;6243938;28;20592;-94
2023/05/05 11:02:40;;;;;;;9.20;6.78;;;;;;;21.96;100.00;100746.38;6261872;28;20430;-95
2023/05/05 11:06:08;;;;;;;9.93;6.35;;;;;;;21.73;100.00;100738.69;6260902;28;20037;-89
2023/05/05 11:09:28;;;;;;;11.02;6.68;;;;;;;21.14;100.00;100746.78;6261489;28;20044;-89
2023/05/05 11:12:32;;;;;;;9.07;6.65;;;;;;;20.51;100.00;100741.09;6261722;28;20033;-89
2023/05/05 11:15:36;;;;;;;12.63;6.75;;;;;;;20.00;100.00;100744.41;6261378;28;20518;-89
2023/05/05 11:18:42;;;;;;;12.20;8.15;;;;;;;19.46;100.00;100728.69;6255688;28;20032;-90
2023/05/05 11:22:00;;;;;;;11.40;8.38;;;;;;;18.16;100.00;100725.53;6258362;28;20511;-91
2023/05/05 11:25:40;;;;;;;11.85;9.45;;;;;;;17.56;100.00;100722.22;6271332;28;20033;-91
2023/05/05 11:29:03;;;;;;;12.15;9.02;;;;;;;17.75;100.00;100720.28;6252638;28;20102;-91
2023/05/05 11:32:18;;;;;;;15.73;9.70;;;;;;;18.07;100.00;100716.88;6256516;28;20064;-92
2023/05/05 11:35:20;;;;;;;15.38;8.88;;;;;;;18.48;100.00;100719.41;6252629;28;20044;-91
2023/05/05 11:38:31;;;;;;;13.93;8.80;;;;;;;19.01;100.00;100714.50;6253721;28;20033;-91
2023/05/05 11:42:15;;;;;;;15.98;9.43;;;;;;;19.62;100.00;100712.78;6260939;28;20098;-90
2023/05/05 11:45:20;;;;;;;14.40;9.30;;;;;;;20.04;100.00;100708.88;6258153;28;20053;-91
2023/05/05 11:48:26;;;;;;;13.98;9.50;;;;;;;20.24;100.00;100711.78;6257558;28;20049;-90
2023/05/05 11:51:28;;;;;;;19.35;8.82;;;;;;;20.31;100.00;100709.25;6258180;28;20041;-90
2023/05/05 11:54:31;;;;;;;13.55;9.27;;;;;;;20.49;100.00;100708.91;6263943;28;20177;-90
2023/05/05 11:57:33;;;;;;;13.38;8.35;;;;;;;20.94;100.00;100709.69;6261248;28;20526;-90
2023/05/05 12:00:35;;;;;;;10.43;8.07;;;;;;;21.19;100.00;100707.53;6259432;28;20055;-90
2023/05/05 12:03:38;;;;;;;10.02;7.30;;;;;;;21.31;100.00;100713.94;6258114;28;20044;-90
2023/05/05 12:06:41;;;;;;;11.18;8.02;;;;;;;21.56;100.00;100706.53;6259905;28;20418;-90
2023/05/05 12:09:46;;;;;;;10.27;7.85;;;;;;;21.64;100.00;100700.31;6254963;28;20033;-90
2023/05/05 12:12:48;;;;;;;10.40;8.13;;;;;;;21.39;100.00;100707.78;6250539;28;20034;-89
2023/05/05 12:15:50;;;;;;;11.88;7.95;;;;;;;21.20;100.00;100711.81;6231957;28;20472;-90
2023/05/05 12:19:04;;;;;;;11.23;7.78;;;;;;;21.13;100.00;100703.84;6256963;28;20044;-90
2023/05/05 12:22:06;;;;;;;10.43;7.30;;;;;;;20.94;100.00;100704.44;6254431;28;20517;-90
2023/05/05 12:25:09;;;;;;;9.82;7.80;;;;;;;20.74;100.00;100709.47;6254220;28;20032;-90
2023/05/05 12:28:11;;;;;;;11.00;7.45;;;;;;;20.59;100.00;100704.22;6251439;28;20099;-90
2023/05/05 12:31:13;;;;;;;10.70;8.10;;;;;;;20.54;100.00;100706.53;6253774;28;20575;-90
2023/05/05 12:34:16;;;;;;;10.68;7.50;;;;;;;20.74;100.00;100704.19;6247733;28;20543;-90
2023/05/05 12:37:18;;;;;;;10.00;7.78;;;;;;;21.18;100.00;100700.66;6260250;28;20406;-90
2023/05/05 12:40:50;;;;;;;9.60;7.30;;;;;;;21.61;100.00;100698.88;6248399;28;20041;-90
2023/05/05 12:43:57;;;;;;;11.30;8.45;;;;;;;21.63;100.00;100702.13;6265990;28;20067;-90
2023/05/05 12:46:59;;;;;;;10.48;7.38;;;;;;;21.69;100.00;100695.31;6255893;28;20165;-91
2023/05/05 12:50:02;;;;;;;9.80;7.95;;;;;;;21.87;100.00;100698.28;6248012;28;20041;-91
2023/05/05 12:53:04;;;;;;;10.95;8.13;;;;;;;21.93;100.00;100686.97;6241218;28;20175;-91
2023/05/05 12:56:33;;;;;;;10.25;7.97;;;;;;;22.04;100.00;100685.63;6256214;28;20114;-92
2023/05/05 12:59:35;;;;;;;10.45;8.38;;;;;;;22.25;100.00;100682.13;6249580;28;20041;-91
2023/05/05 13:02:37;;;;;;;9.70;8.55;;;;;;;22.45;100.00;100684.88;6246939;28;20041;-91
2023/05/05 13:05:40;;;;;;;10.48;7.63;;;;;;;22.50;100.00;100687.75;6262180;28;20395;-91
2023/05/05 13:08:42;;;;;;;10.20;7.88;;;;;;;22.68;100.00;100676.69;6266579;28;20048;-91
2023/05/05 13:11:44;;;;;;;10.93;8.07;;;;;;;23.04;100.00;100667.69;6262336;28;20033;-91
2023/05/05 13:14:46;;;;;;;8.90;7.95;;;;;;;23.09;100.00;100667.88;6253376;28;20423;-91
2023/05/05 13:17:48;;;;;;;9.80;8.02;;;;;;;23.10;100.00;100666.06;6264842;28;20095;-91
2023/05/05 13:20:51;;;;;;;11.88;7.63;;;;;;;23.11;100.00;100657.94;6252550;28;20052;-91
2023/05/05 13:23:53;;;;;;;11.00;8.07;;;;;;;23.41;100.00;100655.75;6245417;28;20626;-91
2023/05/05 13:27:03;;;;;;;10.75;8.40;;;;;;;23.84;100.00;100650.06;6256407;28;20042;-91
2023/05/05 13:30:06;;;;;;;10.43;7.68;;;;;;;23.94;100.00;100652.28;6253806;28;20120;-91
2023/05/05 13:33:08;;;;;;;11.05;8.15;;;;;;;23.98;100.00;100642.13;6234704;28;20045;-91
2023/05/05 13:36:11;;;;;;;9.10;7.05;;;;;;;23.78;100.00;100642.16;6242775;28;20053;-92
2023/05/05 13:39:12;;;;;;;20.25;8.38;;;;;;;23.39;100.00;100639.28;6263530;28;20044;-91
2023/05/05 13:42:15;;;;;;;10.98;8.00;;;;;;;23.12;100.00;100632.34;6266637;28;20040;-91
2023/05/05 13:45:18;;;;;;;9.38;7.95;;;;;;;22.80;100.00;100618.84;6259137;28;20183;-91
2023/05/05 13:48:23;;;;;;;9.35;7.53;;;;;;;22.63;100.00;100618.38;6274031;28;20041;-91
2023/05/05 13:51:25;;;;;;;10.20;7.05;;;;;;;22.74;100.00;100617.00;6262651;28;20052;-91
2023/05/05 13:54:27;;;;;;;10.20;7.68;;;;;;;22.75;100.00;100618.63;6265811;28;20068;-91
2023/05/05 13:57:30;;;;;;;8.48;7.25;;;;;;;23.05;100.00;100610.41;6260458;28;20071;-91
2023/05/05 14:00:33;;;;;;;10.00;7.70;;;;;;;23.53;100.00;100605.75;6254829;28;20041;-90
2023/05/05 14:03:38;;;;;;;9.98;7.75;;;;;;;23.78;100.00;100598.03;6260694;28;20052;-91
2023/05/05 14:06:40;;;;;;;12.82;8.88;;;;;;;23.74;100.00;100599.44;6261440;28;20105;-91
2023/05/05 14:09:42;;;;;;;11.32;7.57;;;;;;;23.70;100.00;100600.84;6265533;28;20544;-91
2023/05/05 14:12:44;;;;;;;10.02;7.60;;;;;;;23.63;100.00;100597.41;6250612;28;20847;-91
2023/05/05 14:15:49;;;;;;;8.55;7.13;;;;;;;23.58;100.00;100582.16;6261454;28;20060;-91